createdAt,value
2018-10-17T00:02:14.981Z,101817.78
2018-10-17T00:04:43.393Z,101817.20
2018-10-17T00:07:11.852Z,101817.97
2018-10-17T00:09:40.181Z,101819.17
2018-10-17T00:12:08.572Z,101817.78
2018-10-17T00:14:36.949Z,101823.33
2018-10-17T00:17:06.040Z,101810.20
2018-10-17T00:19:34.409Z,101823.16
2018-10-17T00:22:02.797Z,101821.83
2018-10-17T00:24:31.165Z,101824.78
2018-10-17T00:26:59.586Z,101821.31
2018-10-17T00:29:28.193Z,101815.61
2018-10-17T00:31:56.585Z,101826.44
2018-10-17T00:34:24.989Z,101826.37
2018-10-17T00:36:53.383Z,101824.20
2018-10-17T00:39:21.775Z,101831.52
2018-10-17T00:41:50.145Z,101830.58
2018-10-17T00:44:18.541Z,101824.45
2018-10-17T00:46:46.907Z,101829.61
2018-10-17T00:49:15.385Z,101823.13
2018-10-17T00:51:43.681Z,101830.90
2018-10-17T00:54:12.069Z,101826.95
2018-10-17T00:56:40.438Z,101825.20
2018-10-17T00:59:12.130Z,101827.30
2018-10-17T01:01:40.657Z,101833.33
2018-10-17T01:04:09.364Z,101830.63
2018-10-17T01:06:38.234Z,101832.28
2018-10-17T01:09:10.090Z,101838.17
2018-10-17T01:11:38.977Z,101829.45
2018-10-17T01:14:07.796Z,101828.06
2018-10-17T01:16:36.167Z,101826.59
2018-10-17T01:19:05.199Z,101820.33
2018-10-17T01:21:34.237Z,101820.61
2018-10-17T01:24:02.781Z,101820.97
2018-10-17T01:26:31.157Z,101813.41
2018-10-17T01:28:59.557Z,101808.51
2018-10-17T01:31:28.266Z,101813.13
2018-10-17T01:33:56.681Z,101807.00
2018-10-17T01:36:25.045Z,101809.95
2018-10-17T01:38:53.441Z,101806.90
2018-10-17T01:41:21.813Z,101804.31
2018-10-17T01:43:50.205Z,101804.24
2018-10-17T01:46:18.568Z,101809.42
2018-10-17T01:48:46.965Z,101804.17
2018-10-17T01:51:15.327Z,101808.02
2018-10-17T01:53:51.357Z,101806.73
2018-10-17T01:56:19.725Z,101805.36
2018-10-17T01:58:48.117Z,101811.80
2018-10-17T02:01:16.501Z,101809.14
2018-10-17T02:03:44.897Z,101806.37
2018-10-17T02:06:13.313Z,101813.30
2018-10-17T02:08:41.713Z,101809.80
2018-10-17T02:11:10.101Z,101808.78
2018-10-17T02:13:38.509Z,101812.91
2018-10-17T02:16:06.889Z,101817.97
2018-10-17T02:18:35.277Z,101816.16
2018-10-17T02:21:03.656Z,101811.74
2018-10-17T02:23:32.053Z,101811.63
2018-10-17T02:26:00.421Z,101812.05
2018-10-17T02:28:28.821Z,101811.56
2018-10-17T02:30:57.223Z,101813.73
2018-10-17T02:33:25.628Z,101816.73
2018-10-17T02:35:54.002Z,101813.27
2018-10-17T02:38:22.409Z,101811.11
2018-10-17T02:40:50.900Z,101811.48
2018-10-17T02:43:19.355Z,101816.63
2018-10-17T02:45:47.686Z,101819.14
2018-10-17T02:48:16.058Z,101820.85
2018-10-17T02:50:44.453Z,101821.62
2018-10-17T02:53:12.927Z,101825.42
2018-10-17T02:55:41.324Z,101821.02
2018-10-17T02:58:09.716Z,101821.39
2018-10-17T03:00:38.127Z,101821.32
2018-10-17T03:03:06.527Z,101816.03
2018-10-17T03:05:34.922Z,101816.84
2018-10-17T03:08:03.335Z,101821.14
2018-10-17T03:10:31.758Z,101815.50
2018-10-17T03:13:00.367Z,101815.92
2018-10-17T03:15:28.767Z,101813.72
2018-10-17T03:17:57.147Z,101811.55
2018-10-17T03:20:25.555Z,101806.34
2018-10-17T03:22:53.960Z,101806.34
2018-10-17T03:25:22.360Z,101803.67
2018-10-17T03:27:50.807Z,101806.53
2018-10-17T03:30:19.208Z,101809.95
2018-10-17T03:32:47.625Z,101808.55
2018-10-17T03:35:16.121Z,101814.52
2018-10-17T03:37:44.453Z,101810.95
2018-10-17T03:40:12.861Z,101807.83
2018-10-17T03:42:41.244Z,101806.42
2018-10-17T03:45:09.655Z,101811.59
2018-10-17T03:47:38.048Z,101817.18
2018-10-17T03:50:06.475Z,101813.64
2018-10-17T03:52:34.850Z,101813.53
2018-10-17T03:55:03.304Z,101822.43
2018-10-17T03:57:31.653Z,101819.73
2018-10-17T04:00:00.048Z,101823.95
2018-10-17T04:02:28.418Z,101823.34
2018-10-17T04:04:56.832Z,101824.55
2018-10-17T04:07:25.224Z,101823.59
2018-10-17T04:09:53.618Z,101828.31
2018-10-17T04:12:22.003Z,101834.70
2018-10-17T04:14:50.421Z,101829.87
2018-10-17T04:17:18.869Z,101825.83
2018-10-17T04:19:47.224Z,101835.88
2018-10-17T04:22:15.601Z,101834.58
2018-10-17T04:24:44.011Z,101837.24
2018-10-17T04:27:12.388Z,101840.70
2018-10-17T04:29:40.819Z,101838.16
2018-10-17T04:32:09.394Z,101838.58
2018-10-17T04:34:37.801Z,101832.95
2018-10-17T04:37:06.278Z,101830.41
2018-10-17T04:39:34.648Z,101832.45
2018-10-17T04:42:03.050Z,101832.87
2018-10-17T04:44:31.431Z,101827.66
2018-10-17T04:46:59.844Z,101831.45
2018-10-17T04:49:28.222Z,101830.58
2018-10-17T04:51:56.623Z,101830.05
2018-10-17T04:54:24.999Z,101829.97
2018-10-17T04:56:53.398Z,101825.13
2018-10-17T04:59:21.780Z,101826.43
2018-10-17T05:01:50.191Z,101830.30
2018-10-17T05:04:18.585Z,101832.84
2018-10-17T05:06:47.092Z,101832.35
2018-10-17T05:09:15.678Z,101834.48
2018-10-17T05:11:44.080Z,101837.86
2018-10-17T05:14:12.457Z,101842.16
2018-10-17T05:16:40.848Z,101848.95
2018-10-17T05:19:09.263Z,101862.70
2018-10-17T05:21:37.651Z,101857.00
2018-10-17T05:24:06.044Z,101856.13
2018-10-17T05:26:34.447Z,101864.75
2018-10-17T05:29:02.909Z,101861.21
2018-10-17T05:31:31.291Z,101869.30
2018-10-17T05:33:59.667Z,101869.30
2018-10-17T05:36:28.071Z,101868.84
2018-10-17T05:38:56.472Z,101870.05
2018-10-17T05:41:24.865Z,101872.09
2018-10-17T05:43:53.333Z,101874.09
2018-10-17T05:46:21.725Z,101870.42
2018-10-17T05:48:50.211Z,101869.80
2018-10-17T05:51:18.607Z,101868.05
2018-10-17T05:53:46.978Z,101867.97
2018-10-17T05:56:15.379Z,101869.72
2018-10-17T05:58:43.757Z,101871.09
2018-10-17T06:01:12.292Z,101872.05
2018-10-17T06:03:40.575Z,101878.64
2018-10-17T06:06:08.966Z,101878.30
2018-10-17T06:08:37.361Z,101883.59
2018-10-17T06:11:05.867Z,101884.14
2018-10-17T06:13:34.233Z,101889.05
2018-10-17T06:16:02.615Z,101886.09
2018-10-17T06:18:31.035Z,101884.55
2018-10-17T06:20:59.408Z,101889.09
2018-10-17T06:23:27.811Z,101886.63
2018-10-17T06:25:56.183Z,101885.46
2018-10-17T06:28:24.618Z,101882.54
2018-10-17T06:30:53.035Z,101878.45
2018-10-17T06:33:21.425Z,101879.94
2018-10-17T06:35:49.793Z,101886.19
2018-10-17T06:38:18.194Z,101889.08
2018-10-17T06:40:46.567Z,101885.32
2018-10-17T06:43:15.089Z,101889.64
2018-10-17T06:45:43.452Z,101887.32
2018-10-17T06:48:11.846Z,101890.68
2018-10-17T06:50:40.217Z,101889.70
2018-10-17T06:53:08.735Z,101891.64
2018-10-17T06:55:37.065Z,101891.48
2018-10-17T06:58:05.607Z,101892.55
2018-10-17T07:00:33.985Z,101891.37
2018-10-17T07:03:02.391Z,101894.56
2018-10-17T07:05:30.768Z,101891.29
2018-10-17T07:07:59.187Z,101889.76
2018-10-17T07:10:27.751Z,101895.16
2018-10-17T07:12:56.225Z,101898.01
2018-10-17T07:15:24.632Z,101903.06
2018-10-17T07:17:52.995Z,101905.98
2018-10-17T07:20:21.381Z,101898.91
2018-10-17T07:22:49.791Z,101900.11
2018-10-17T07:25:18.254Z,101903.86
2018-10-17T07:27:46.619Z,101905.44
2018-10-17T07:30:15.029Z,101910.03
2018-10-17T07:32:43.420Z,101905.58
2018-10-17T07:35:11.823Z,101907.63
2018-10-17T07:37:40.202Z,101910.08
2018-10-17T07:40:08.699Z,101908.17
2018-10-17T07:42:37.083Z,101903.70
2018-10-17T07:45:06.366Z,101908.84
2018-10-17T07:47:34.780Z,101909.59
2018-10-17T07:50:03.344Z,101912.89
2018-10-17T07:52:31.735Z,101914.09
2018-10-17T07:55:00.155Z,101906.66
2018-10-17T07:57:28.547Z,101900.90
2018-10-17T07:59:56.958Z,101902.98
2018-10-17T08:02:25.343Z,101906.45
2018-10-17T08:04:53.755Z,101909.83
2018-10-17T08:07:22.139Z,101905.42
2018-10-17T08:09:50.542Z,101903.59
2018-10-17T08:12:19.006Z,101897.46
2018-10-17T08:14:47.447Z,101891.33
2018-10-17T08:17:15.835Z,101893.85
2018-10-17T08:19:44.239Z,101890.34
2018-10-17T08:22:12.619Z,101891.98
2018-10-17T08:24:41.013Z,101888.41
2018-10-17T08:27:09.407Z,101887.39
2018-10-17T08:29:37.811Z,101888.96
2018-10-17T08:32:07.387Z,101891.44
2018-10-17T08:34:35.789Z,101894.80
2018-10-17T08:37:04.516Z,101889.41
2018-10-17T08:39:32.620Z,101894.48
2018-10-17T08:42:01.005Z,101893.86
2018-10-17T08:44:29.471Z,101895.44
2018-10-17T08:46:57.855Z,101896.10
2018-10-17T08:49:26.255Z,101893.73
2018-10-17T08:51:54.643Z,101895.34
2018-10-17T08:54:23.054Z,101893.83
2018-10-17T08:56:51.434Z,101895.39
2018-10-17T08:59:19.838Z,101890.44
2018-10-17T09:01:48.229Z,101888.51
2018-10-17T09:04:16.633Z,101884.84
2018-10-17T09:06:45.010Z,101881.98
2018-10-17T09:09:14.073Z,101880.00
2018-10-17T09:11:42.783Z,101881.97
2018-10-17T09:14:11.749Z,101877.79
2018-10-17T09:16:40.577Z,101875.78
2018-10-17T09:19:09.672Z,101875.55
2018-10-17T09:21:38.487Z,101876.16
2018-10-17T09:24:06.796Z,101880.70
2018-10-17T09:26:35.227Z,101877.77
2018-10-17T09:29:03.653Z,101881.48
2018-10-17T09:31:32.078Z,101875.97
2018-10-17T09:34:00.524Z,101873.05
2018-10-17T09:36:28.903Z,101871.88
2018-10-17T09:38:57.285Z,101871.61
2018-10-17T09:41:25.696Z,101870.86
2018-10-17T09:43:54.091Z,101867.96
2018-10-17T09:46:22.513Z,101873.81
2018-10-17T09:48:50.894Z,101872.58
2018-10-17T09:51:19.298Z,101866.18
2018-10-17T09:53:47.674Z,101867.12
2018-10-17T09:56:16.070Z,101867.24
2018-10-17T09:58:44.463Z,101868.67
2018-10-17T10:01:16.523Z,101865.27
2018-10-17T10:03:44.939Z,101864.91
2018-10-17T10:06:13.524Z,101865.43
2018-10-17T10:08:41.917Z,101858.95
2018-10-17T10:11:10.422Z,101856.42
2018-10-17T10:13:38.746Z,101856.48
2018-10-17T10:16:07.186Z,101856.58
2018-10-17T10:18:35.550Z,101857.92
2018-10-17T10:21:03.959Z,101860.18
2018-10-17T10:23:32.358Z,101856.72
2018-10-17T10:26:00.869Z,101850.20
2018-10-17T10:28:29.288Z,101855.06
2018-10-17T10:30:57.712Z,101848.95
2018-10-17T10:33:26.087Z,101845.93
2018-10-17T10:35:54.497Z,101846.42
2018-10-17T10:38:22.922Z,101840.75
2018-10-17T10:40:51.321Z,101843.86
2018-10-17T10:43:19.703Z,101835.53
2018-10-17T10:45:48.121Z,101834.69
2018-10-17T10:48:16.613Z,101833.37
2018-10-17T10:50:44.930Z,101828.57
2018-10-17T10:53:13.305Z,101831.20
2018-10-17T10:55:41.701Z,101819.37
2018-10-17T10:58:10.145Z,101825.04
2018-10-17T11:00:39.535Z,101822.84
2018-10-17T11:03:07.973Z,101820.66
2018-10-17T11:05:36.351Z,101817.60
2018-10-17T11:08:04.844Z,101819.33
2018-10-17T11:10:33.166Z,101820.63
2018-10-17T11:13:01.544Z,101816.22
2018-10-17T11:15:29.931Z,101814.91
2018-10-17T11:17:58.335Z,101805.66
2018-10-17T11:20:26.723Z,101805.63
2018-10-17T11:22:55.201Z,101809.13
2018-10-17T11:25:23.552Z,101802.95
2018-10-17T11:27:51.950Z,101810.39
2018-10-17T11:30:20.446Z,101809.48
2018-10-17T11:32:48.881Z,101803.30
2018-10-17T11:35:17.399Z,101796.25
2018-10-17T11:37:45.776Z,101801.51
2018-10-17T11:40:14.260Z,101798.41
2018-10-17T11:42:42.538Z,101795.30
2018-10-17T11:45:10.989Z,101794.82
2018-10-17T11:47:39.382Z,101792.16
2018-10-17T11:50:09.183Z,101786.45
2018-10-17T11:52:37.791Z,101783.75
2018-10-17T11:55:06.332Z,101781.54
2018-10-17T11:57:34.851Z,101775.83
2018-10-17T12:00:03.478Z,101778.87
2018-10-17T12:02:31.891Z,101778.84
2018-10-17T12:05:00.469Z,101778.84
2018-10-17T12:07:28.715Z,101782.77
2018-10-17T12:09:57.111Z,101781.42
2018-10-17T12:12:25.557Z,101778.75
2018-10-17T12:14:54.064Z,101780.06
2018-10-17T12:17:22.455Z,101776.53
2018-10-17T12:19:50.903Z,101777.36
2018-10-17T12:22:19.267Z,101773.83
2018-10-17T12:24:47.659Z,101773.38
2018-10-17T12:27:16.145Z,101771.57
2018-10-17T12:29:44.501Z,101767.16
2018-10-17T12:32:12.927Z,101766.71
2018-10-17T12:34:41.431Z,101767.09
2018-10-17T12:37:09.822Z,101769.69
2018-10-17T12:39:38.215Z,101774.51
2018-10-17T12:42:06.623Z,101767.91
2018-10-17T12:44:35.011Z,101767.46
2018-10-17T12:47:03.434Z,101771.86
2018-10-17T12:49:31.849Z,101772.73
2018-10-17T12:52:00.287Z,101771.33
2018-10-17T12:54:28.669Z,101772.19
2018-10-17T12:56:57.039Z,101773.92
2018-10-17T12:59:25.444Z,101771.70
2018-10-17T13:01:53.831Z,101769.02
2018-10-17T13:04:22.232Z,101772.97
2018-10-17T13:06:50.609Z,101768.56
2018-10-17T13:09:19.001Z,101763.24
2018-10-17T13:11:47.433Z,101762.79
2018-10-17T13:14:15.849Z,101761.88
2018-10-17T13:16:44.235Z,101760.06
2018-10-17T13:19:12.705Z,101761.80
2018-10-17T13:21:41.044Z,101757.79
2018-10-17T13:24:09.451Z,101761.30
2018-10-17T13:26:37.821Z,101760.42
2018-10-17T13:29:06.661Z,101756.92
2018-10-17T13:31:35.019Z,101756.92
2018-10-17T13:34:03.482Z,101758.66
2018-10-17T13:36:31.866Z,101757.78
2018-10-17T13:39:00.357Z,101754.70
2018-10-17T13:41:28.733Z,101752.05
2018-10-17T13:43:57.129Z,101749.38
2018-10-17T13:46:25.514Z,101754.23
2018-10-17T13:48:53.959Z,101755.97
2018-10-17T13:51:22.343Z,101758.19
2018-10-17T13:53:50.747Z,101755.09
2018-10-17T13:56:19.235Z,101752.88
2018-10-17T13:58:47.641Z,101756.78
2018-10-17T14:01:16.098Z,101752.41
2018-10-17T14:03:44.459Z,101755.95
2018-10-17T14:06:12.919Z,101751.10
2018-10-17T14:08:41.281Z,101751.59
2018-10-17T14:11:09.665Z,101746.31
2018-10-17T14:13:38.086Z,101752.46
2018-10-17T14:16:06.749Z,101740.62
2018-10-17T14:18:35.149Z,101751.61
2018-10-17T14:21:03.599Z,101746.37
2018-10-17T14:23:32.055Z,101748.11
2018-10-17T14:26:00.589Z,101749.91
2018-10-17T14:28:28.999Z,101748.60
2018-10-17T14:30:59.125Z,101751.25
2018-10-17T14:33:27.518Z,101751.29
2018-10-17T14:35:56.022Z,101748.24
2018-10-17T14:38:24.326Z,101753.11
2018-10-17T14:40:52.719Z,101758.42
2018-10-17T14:43:21.125Z,101750.52
2018-10-17T14:45:49.540Z,101752.33
2018-10-17T14:48:18.048Z,101756.29
2018-10-17T14:50:46.357Z,101755.87
2018-10-17T14:53:14.833Z,101754.19
2018-10-17T14:55:43.255Z,101753.33
2018-10-17T14:58:11.611Z,101754.69
2018-10-17T15:00:40.026Z,101750.31
2018-10-17T15:03:08.430Z,101749.46
2018-10-17T15:05:36.947Z,101749.05
2018-10-17T15:08:05.332Z,101749.09
2018-10-17T15:10:33.833Z,101746.95
2018-10-17T15:13:02.518Z,101745.25
2018-10-17T15:15:30.917Z,101745.74
2018-10-17T15:17:59.322Z,101747.09
2018-10-17T15:20:27.744Z,101744.53
2018-10-17T15:22:56.122Z,101745.88
2018-10-17T15:25:24.527Z,101747.69
2018-10-17T15:27:52.897Z,101745.12
2018-10-17T15:30:21.323Z,101749.55
2018-10-17T15:32:49.723Z,101752.69
2018-10-17T15:35:18.122Z,101753.16
2018-10-17T15:37:46.511Z,101763.75
2018-10-17T15:40:14.912Z,101760.27
2018-10-17T15:42:43.307Z,101764.27
2018-10-17T15:45:11.765Z,101768.68
2018-10-17T15:47:40.104Z,101769.62
2018-10-17T15:50:08.514Z,101770.98
2018-10-17T15:52:36.935Z,101771.88
2018-10-17T15:55:05.703Z,101771.47
2018-10-17T15:57:34.074Z,101775.44
2018-10-17T16:00:02.543Z,101777.69
2018-10-17T16:02:30.947Z,101776.39
2018-10-17T16:04:59.314Z,101777.72
2018-10-17T16:07:27.691Z,101779.02
2018-10-17T16:09:56.099Z,101781.69
2018-10-17T16:12:24.483Z,101779.95
2018-10-17T16:14:52.888Z,101776.88
2018-10-17T16:17:21.270Z,101771.20
2018-10-17T16:19:49.673Z,101772.09
2018-10-17T16:22:18.081Z,101774.70
2018-10-17T16:24:46.497Z,101777.34
2018-10-17T16:27:14.884Z,101776.02
2018-10-17T16:29:43.261Z,101776.02
2018-10-17T16:32:11.737Z,101779.47
2018-10-17T16:34:40.141Z,101783.81
2018-10-17T16:37:08.553Z,101782.89
2018-10-17T16:39:36.947Z,101783.31
2018-10-17T16:42:05.865Z,101789.83
2018-10-17T16:44:34.216Z,101795.06
2018-10-17T16:47:02.661Z,101791.53
2018-10-17T16:49:31.118Z,101796.31
2018-10-17T16:51:59.496Z,101799.36
2018-10-17T16:54:27.871Z,101797.57
2018-10-17T16:56:56.298Z,101807.13
2018-10-17T16:59:24.701Z,101806.25
2018-10-17T17:01:53.115Z,101807.52
2018-10-17T17:04:21.557Z,101805.66
2018-10-17T17:06:50.055Z,101811.28
2018-10-17T17:09:18.557Z,101811.25
2018-10-17T17:11:46.902Z,101813.81
2018-10-17T17:14:15.308Z,101815.50
2018-10-17T17:16:43.715Z,101817.63
2018-10-17T17:19:12.275Z,101813.23
2018-10-17T17:21:40.702Z,101818.83
2018-10-17T17:24:09.161Z,101815.27
2018-10-17T17:26:37.534Z,101819.16
2018-10-17T17:29:06.195Z,101819.52
2018-10-17T17:31:34.620Z,101823.84
2018-10-17T17:34:03.001Z,101818.97
2018-10-17T17:36:31.724Z,101822.81
2018-10-17T17:39:00.080Z,101818.40
2018-10-17T17:41:28.478Z,101815.27
2018-10-17T17:43:56.983Z,101816.92
2018-10-17T17:46:25.397Z,101817.73
2018-10-17T17:48:53.787Z,101815.53
2018-10-17T17:51:22.201Z,101813.70
2018-10-17T17:53:50.580Z,101815.38
2018-10-17T17:56:18.985Z,101815.32
2018-10-17T17:58:47.374Z,101819.63
2018-10-17T18:01:15.782Z,101817.81
2018-10-17T18:03:44.161Z,101820.37
2018-10-17T18:06:12.570Z,101819.87
2018-10-17T18:08:40.959Z,101821.55
2018-10-17T18:11:18.008Z,101825.83
2018-10-17T18:13:46.395Z,101830.99
2018-10-17T18:16:14.844Z,101837.89
2018-10-17T18:18:43.635Z,101836.91
2018-10-17T18:21:12.083Z,101843.41
2018-10-17T18:23:41.002Z,101844.17
2018-10-17T18:26:09.722Z,101838.00
2018-10-17T18:28:38.146Z,101840.06
2018-10-17T18:31:06.586Z,101839.98
2018-10-17T18:33:34.990Z,101844.30
2018-10-17T18:36:03.575Z,101844.61
2018-10-17T18:38:31.982Z,101846.67
2018-10-17T18:41:00.575Z,101847.85
2018-10-17T18:43:28.979Z,101853.38
2018-10-17T18:45:57.362Z,101848.03
2018-10-17T18:48:26.032Z,101847.47
2018-10-17T18:50:54.471Z,101849.50
2018-10-17T18:53:22.989Z,101846.72
2018-10-17T18:55:52.031Z,101854.84
2018-10-17T18:58:20.490Z,101856.40
2018-10-17T19:00:48.873Z,101858.85
2018-10-17T19:03:17.288Z,101858.22
2018-10-17T19:05:45.678Z,101862.75
2018-10-17T19:08:14.167Z,101865.54
2018-10-17T19:10:42.495Z,101874.45
2018-10-17T19:13:10.899Z,101868.10
2018-10-17T19:15:39.322Z,101864.85
2018-10-17T19:18:07.759Z,101867.33
2018-10-17T19:20:36.202Z,101865.00
2018-10-17T19:23:04.819Z,101869.67
2018-10-17T19:25:33.205Z,101870.47
2018-10-17T19:28:01.623Z,101871.27
2018-10-17T19:30:30.052Z,101873.81
2018-10-17T19:32:58.488Z,101881.15
2018-10-17T19:35:26.853Z,101880.70
2018-10-17T19:37:55.381Z,101880.20
2018-10-17T19:40:23.749Z,101881.02
2018-10-17T19:42:52.182Z,101882.70
2018-10-17T19:45:20.575Z,101882.65
2018-10-17T19:47:49.060Z,101883.94
2018-10-17T19:50:17.561Z,101879.98
2018-10-17T19:52:45.953Z,101876.08
2018-10-17T19:55:14.365Z,101878.61
2018-10-17T19:57:42.771Z,101883.20
2018-10-17T20:00:13.163Z,101881.66
2018-10-17T20:02:42.034Z,101884.87
2018-10-17T20:05:10.691Z,101878.98
2018-10-17T20:07:39.536Z,101884.36
2018-10-17T20:10:07.942Z,101880.26
2018-10-17T20:12:36.315Z,101882.70
2018-10-17T20:15:05.102Z,101881.33
2018-10-17T20:17:33.532Z,101882.53
2018-10-17T20:20:02.026Z,101883.33
2018-10-17T20:22:30.423Z,101879.34
2018-10-17T20:24:58.859Z,101877.97
2018-10-17T20:27:27.247Z,101875.30
2018-10-17T20:29:55.656Z,101876.09
2018-10-17T20:32:24.101Z,101878.55
2018-10-17T20:34:52.506Z,101877.59
2018-10-17T20:37:20.906Z,101875.79
2018-10-17T20:39:49.324Z,101874.84
2018-10-17T20:42:17.808Z,101866.91
2018-10-17T20:44:46.154Z,101874.14
2018-10-17T20:47:14.522Z,101872.28
2018-10-17T20:49:43.027Z,101873.87
2018-10-17T20:52:11.429Z,101873.36
2018-10-17T20:54:39.825Z,101872.41
2018-10-17T20:57:08.214Z,101875.80
2018-10-17T20:59:36.619Z,101872.27
2018-10-17T21:02:05.223Z,101873.51
2018-10-17T21:04:33.616Z,101872.61
2018-10-17T21:07:02.002Z,101864.70
2018-10-17T21:09:30.406Z,101867.27
2018-10-17T21:11:58.839Z,101864.11
2018-10-17T21:14:27.253Z,101869.64
2018-10-17T21:16:55.636Z,101866.96
2018-10-17T21:19:24.037Z,101864.22
2018-10-17T21:21:52.410Z,101875.79
2018-10-17T21:24:20.815Z,101866.11
2018-10-17T21:26:49.216Z,101872.52
2018-10-17T21:29:17.663Z,101868.95
2018-10-17T21:31:46.067Z,101870.13
2018-10-17T21:34:14.471Z,101869.62
2018-10-17T21:36:42.850Z,101872.55
2018-10-17T21:39:12.623Z,101871.11
2018-10-17T21:41:41.016Z,101870.14
2018-10-17T21:44:10.478Z,101875.64
2018-10-17T21:46:39.171Z,101876.84
2018-10-17T21:49:08.490Z,101874.94
2018-10-17T21:51:36.880Z,101869.59
2018-10-17T21:54:05.706Z,101869.89
2018-10-17T21:56:34.098Z,101872.83
2018-10-17T21:59:02.608Z,101873.09
2018-10-17T22:01:31.107Z,101876.89
2018-10-17T22:03:59.487Z,101872.41
2018-10-17T22:06:27.902Z,101870.15
2018-10-17T22:08:56.291Z,101875.25
2018-10-17T22:11:24.685Z,101872.52
2018-10-17T22:13:53.087Z,101869.38
2018-10-17T22:16:21.789Z,101874.92
2018-10-17T22:18:50.255Z,101872.23
2018-10-17T22:21:18.621Z,101876.00
2018-10-17T22:23:46.993Z,101875.90
2018-10-17T22:26:15.499Z,101874.05
2018-10-17T22:28:43.840Z,101879.66
2018-10-17T22:31:12.255Z,101882.61
2018-10-17T22:33:40.644Z,101878.20
2018-10-17T22:36:09.079Z,101875.96
2018-10-17T22:38:37.453Z,101874.11
2018-10-17T22:41:05.902Z,101867.50
2018-10-17T22:43:34.298Z,101873.95
2018-10-17T22:46:02.692Z,101873.84
2018-10-17T22:48:31.078Z,101875.50
2018-10-17T22:50:59.475Z,101874.98
2018-10-17T22:53:27.852Z,101874.45
2018-10-17T22:55:56.299Z,101871.73
2018-10-17T22:58:24.983Z,101875.94
2018-10-17T23:00:53.387Z,101878.88
2018-10-17T23:03:21.758Z,101883.61
2018-10-17T23:05:50.171Z,101877.48
2018-10-17T23:08:18.961Z,101879.55
2018-10-17T23:10:47.579Z,101877.28
2018-10-17T23:13:15.954Z,101881.45
2018-10-17T23:15:44.444Z,101884.36
2018-10-17T23:18:12.819Z,101877.28
2018-10-17T23:20:41.222Z,101877.98
2018-10-17T23:23:09.585Z,101875.30
2018-10-17T23:25:37.982Z,101874.73
2018-10-17T23:28:06.354Z,101873.27
2018-10-17T23:30:34.791Z,101879.67
2018-10-17T23:33:03.166Z,101876.20
2018-10-17T23:35:31.572Z,101872.21
2018-10-17T23:38:00.008Z,101868.25
2018-10-17T23:40:28.427Z,101868.60
2018-10-17T23:42:56.807Z,101865.45
2018-10-17T23:45:25.189Z,101861.04
2018-10-17T23:47:53.636Z,101864.85
2018-10-17T23:50:21.995Z,101869.58
2018-10-17T23:52:50.398Z,101865.62
2018-10-17T23:55:18.849Z,101859.91
2018-10-17T23:57:47.256Z,101858.55
